UAE7DN LOWW-OMDB
Flight info
| Callsign | UAE7DN |
|---|---|
| Flight time | N/A |
| Altitude | 35000 |
| Route | ARSIN DCT NALOX DCT SUNOR DCT OSDUK DCT AKIKA DCT DIMIS DCT IPTES UL604 SALUN N705 MMA P751 DASUM Y234 FYM M872 BDB Y214 SIKNU/N0484F370 Y214 RAPMA DCT KUVSO DCT KATIT DCT PEKEM M628 RIGIL G783 ELUDA/N0476F350 G783 ASPED Q308 KIPOK Q568 IMPED |
| Aircraft | B77W/H-SDE1E2E3FGHIJ2J3J4J5M1RWXY/LB1D1 |
Departure
| Time | 2026-04-23 09:13 |
|---|---|
| Airport | Vienna International Airport (LOWW) |
Arrival
| Time | N/A |
|---|---|
| Airport | Dubai International Airport (OMDB) |
| Time | Latitude | Longitude | Altitude | Speed | Heading |
|---|---|---|---|---|---|
| 2026-04-23 08:46 | 48.11616 | 16.57030 | 614 ft | 0 kts | 27° |
| 2026-04-23 08:52 | 48.11616 | 16.57031 | 614 ft | 0 kts | 27° |
| 2026-04-23 08:52 | 48.11616 | 16.57030 | 614 ft | 0 kts | 27° |
| 2026-04-23 09:06 | 48.11612 | 16.57027 | 614 ft | 4 kts | 28° |
| 2026-04-23 09:06 | 48.11590 | 16.57005 | 622 ft | 4 kts | 46° |
| 2026-04-23 09:06 | 48.11575 | 16.56973 | 629 ft | 4 kts | 73° |
| 2026-04-23 09:07 | 48.11574 | 16.56937 | 627 ft | 3 kts | 114° |
| 2026-04-23 09:07 | 48.11575 | 16.56932 | 614 ft | 0 kts | 116° |
| 2026-04-23 09:09 | 48.11539 | 16.57042 | 620 ft | 21 kts | 116° |
| 2026-04-23 09:09 | 48.11474 | 16.57242 | 625 ft | 21 kts | 116° |
| 2026-04-23 09:09 | 48.11421 | 16.57372 | 617 ft | 12 kts | 147° |
| 2026-04-23 09:10 | 48.11344 | 16.57352 | 617 ft | 12 kts | 204° |
| 2026-04-23 09:10 | 48.11237 | 16.57473 | 626 ft | 12 kts | 116° |
| 2026-04-23 09:10 | 48.11197 | 16.57580 | 629 ft | 12 kts | 134° |
| 2026-04-23 09:11 | 48.11120 | 16.57616 | 625 ft | 12 kts | 155° |
| 2026-04-23 09:11 | 48.11039 | 16.57637 | 624 ft | 12 kts | 189° |
| 2026-04-23 09:11 | 48.10962 | 16.57590 | 624 ft | 12 kts | 206° |
| 2026-04-23 09:11 | 48.10940 | 16.57462 | 626 ft | 23 kts | 289° |
| 2026-04-23 09:12 | 48.11074 | 16.57046 | 629 ft | 76 kts | 296° |
| 2026-04-23 09:12 | 48.11402 | 16.56038 | 626 ft | 138 kts | 296° |
| 2026-04-23 09:12 | 48.11888 | 16.54528 | 687 ft | 176 kts | 297° |
| 2026-04-23 09:12 | 48.12430 | 16.52881 | 1186 ft | 177 kts | 298° |
| 2026-04-23 09:13 | 48.12719 | 16.51120 | 1733 ft | 184 kts | 262° |
| 2026-04-23 09:13 | 48.12022 | 16.49429 | 1931 ft | 210 kts | 217° |
| 2026-04-23 09:13 | 48.10606 | 16.48564 | 2148 ft | 231 kts | 202° |
| 2026-04-23 09:13 | 48.09009 | 16.47741 | 2358 ft | 255 kts | 204° |
| 2026-04-23 09:14 | 48.07264 | 16.47131 | 2695 ft | 272 kts | 181° |
| 2026-04-23 09:14 | 48.05326 | 16.47540 | 3139 ft | 284 kts | 173° |
| 2026-04-23 09:14 | 48.03361 | 16.47976 | 3848 ft | 286 kts | 175° |
| 2026-04-23 09:14 | 48.01411 | 16.48358 | 4610 ft | 289 kts | 175° |
| 2026-04-23 09:15 | 47.99401 | 16.48729 | 5250 ft | 293 kts | 175° |
| 2026-04-23 09:15 | 47.97375 | 16.49478 | 5799 ft | 300 kts | 160° |
| 2026-04-23 09:15 | 47.95471 | 16.50665 | 6513 ft | 301 kts | 155° |
| 2026-04-23 09:15 | 47.93559 | 16.51966 | 7233 ft | 304 kts | 155° |
| 2026-04-23 09:16 | 47.91625 | 16.53280 | 7937 ft | 306 kts | 155° |
| 2026-04-23 09:16 | 47.89672 | 16.54589 | 8594 ft | 311 kts | 155° |
| 2026-04-23 09:16 | 47.87682 | 16.55892 | 9226 ft | 313 kts | 155° |
| 2026-04-23 09:16 | 47.85678 | 16.57187 | 9860 ft | 316 kts | 155° |
| 2026-04-23 09:17 | 47.83646 | 16.58487 | 10403 ft | 323 kts | 155° |
| 2026-04-23 09:17 | 47.81516 | 16.59844 | 10554 ft | 344 kts | 155° |
| 2026-04-23 09:17 | 47.79251 | 16.61279 | 10748 ft | 364 kts | 155° |
| 2026-04-23 09:17 | 47.76850 | 16.62795 | 10916 ft | 386 kts | 155° |
| 2026-04-23 09:18 | 47.74329 | 16.64379 | 11382 ft | 399 kts | 155° |
| 2026-04-23 09:18 | 47.71746 | 16.65993 | 12067 ft | 406 kts | 155° |
| 2026-04-23 09:18 | 47.69136 | 16.67629 | 12922 ft | 409 kts | 154° |
| 2026-04-23 09:18 | 47.66512 | 16.69269 | 13839 ft | 410 kts | 154° |
| 2026-04-23 09:19 | 47.63878 | 16.70917 | 14733 ft | 412 kts | 154° |
| 2026-04-23 09:19 | 47.61223 | 16.72577 | 15542 ft | 416 kts | 154° |
| 2026-04-23 09:19 | 47.58516 | 16.74141 | 16324 ft | 421 kts | 159° |
| 2026-04-23 09:19 | 47.55654 | 16.75245 | 17071 ft | 428 kts | 165° |
| 2026-04-23 09:20 | 47.52690 | 16.75899 | 17825 ft | 434 kts | 172° |
| 2026-04-23 09:20 | 47.49662 | 16.76199 | 18523 ft | 438 kts | 174° |
| 2026-04-23 09:20 | 47.46600 | 16.76460 | 19190 ft | 443 kts | 174° |
| 2026-04-23 09:20 | 47.43508 | 16.76720 | 19836 ft | 448 kts | 174° |
| 2026-04-23 09:21 | 47.40376 | 16.76990 | 20461 ft | 453 kts | 174° |
| 2026-04-23 09:21 | 47.37217 | 16.77272 | 21072 ft | 457 kts | 174° |
| 2026-04-23 09:21 | 47.34029 | 16.77566 | 21693 ft | 461 kts | 174° |
| 2026-04-23 09:21 | 47.30815 | 16.77867 | 22301 ft | 464 kts | 173° |
| 2026-04-23 09:22 | 47.27577 | 16.78173 | 22886 ft | 468 kts | 173° |
| 2026-04-23 09:22 | 47.24312 | 16.78484 | 23409 ft | 473 kts | 173° |
| 2026-04-23 09:22 | 47.21013 | 16.78797 | 23913 ft | 477 kts | 173° |
| 2026-04-23 09:22 | 47.17689 | 16.79114 | 24446 ft | 481 kts | 173° |
| 2026-04-23 09:23 | 47.14337 | 16.79432 | 24956 ft | 484 kts | 173° |
| 2026-04-23 09:23 | 47.10965 | 16.79750 | 25451 ft | 487 kts | 173° |
| 2026-04-23 09:23 | 47.07569 | 16.80072 | 25928 ft | 491 kts | 173° |
| 2026-04-23 09:23 | 47.04146 | 16.80395 | 26371 ft | 494 kts | 173° |
| 2026-04-23 09:24 | 47.00699 | 16.80718 | 26804 ft | 498 kts | 173° |
| 2026-04-23 09:24 | 46.97248 | 16.81041 | 27245 ft | 501 kts | 173° |
| 2026-04-23 09:24 | 46.93761 | 16.81366 | 27674 ft | 503 kts | 173° |
| 2026-04-23 09:24 | 46.90296 | 16.81946 | 28000 ft | 501 kts | 164° |
| 2026-04-23 09:25 | 46.86983 | 16.83476 | 28312 ft | 498 kts | 152° |
| 2026-04-23 09:25 | 46.83928 | 16.85800 | 28700 ft | 493 kts | 143° |
| 2026-04-23 09:25 | 46.81217 | 16.88803 | 29041 ft | 487 kts | 134° |
| 2026-04-23 09:25 | 46.78653 | 16.92056 | 29300 ft | 491 kts | 134° |
| 2026-04-23 09:26 | 46.76073 | 16.95334 | 29623 ft | 493 kts | 134° |
| 2026-04-23 09:26 | 46.73480 | 16.98592 | 30122 ft | 491 kts | 134° |
| 2026-04-23 09:26 | 46.70890 | 17.01810 | 30650 ft | 488 kts | 134° |
| 2026-04-23 09:26 | 46.68302 | 17.04990 | 31122 ft | 486 kts | 134° |
| 2026-04-23 09:27 | 46.65713 | 17.08152 | 31558 ft | 485 kts | 135° |
| 2026-04-23 09:27 | 46.63128 | 17.11303 | 31947 ft | 484 kts | 134° |
| 2026-04-23 09:27 | 46.60581 | 17.14406 | 32292 ft | 484 kts | 134° |
| 2026-04-23 09:27 | 46.58000 | 17.17549 | 32663 ft | 484 kts | 134° |
| 2026-04-23 09:28 | 46.55389 | 17.20726 | 33030 ft | 483 kts | 134° |
| 2026-04-23 09:28 | 46.52819 | 17.23850 | 33403 ft | 481 kts | 134° |
| 2026-04-23 09:28 | 46.50254 | 17.26963 | 33769 ft | 479 kts | 134° |
| 2026-04-23 09:28 | 46.47733 | 17.30017 | 34104 ft | 479 kts | 134° |
| 2026-04-23 09:29 | 46.45185 | 17.33125 | 34392 ft | 478 kts | 134° |
| 2026-04-23 09:29 | 46.42645 | 17.36242 | 34680 ft | 478 kts | 134° |
| 2026-04-23 09:29 | 46.40114 | 17.39353 | 35015 ft | 476 kts | 134° |
| 2026-04-23 09:29 | 46.38405 | 17.41452 | 35153 ft | 478 kts | 134° |
| 2026-04-23 09:30 | 46.35027 | 17.45596 | 35196 ft | 481 kts | 134° |
| 2026-04-23 09:30 | 46.30752 | 17.50818 | 35197 ft | 478 kts | 134° |
| 2026-04-23 09:31 | 46.25693 | 17.56977 | 35194 ft | 473 kts | 134° |
| 2026-04-23 09:31 | 46.20669 | 17.63083 | 35203 ft | 471 kts | 134° |
| 2026-04-23 09:32 | 46.15690 | 17.69120 | 35195 ft | 471 kts | 134° |
| 2026-04-23 09:32 | 46.10670 | 17.75193 | 35196 ft | 472 kts | 134° |
| 2026-04-23 09:33 | 46.05632 | 17.81275 | 35193 ft | 473 kts | 134° |
| 2026-04-23 09:33 | 46.00573 | 17.87363 | 35196 ft | 475 kts | 134° |
| 2026-04-23 09:34 | 45.95527 | 17.93420 | 35187 ft | 476 kts | 134° |
| 2026-04-23 09:34 | 45.90442 | 17.99509 | 35184 ft | 476 kts | 134° |
| 2026-04-23 09:35 | 45.85438 | 18.05492 | 35184 ft | 476 kts | 135° |
| 2026-04-23 09:35 | 45.80209 | 18.11356 | 35182 ft | 481 kts | 142° |
| 2026-04-23 09:36 | 45.74196 | 18.15732 | 35182 ft | 490 kts | 155° |
| 2026-04-23 09:36 | 45.67718 | 18.18846 | 35186 ft | 491 kts | 157° |
| 2026-04-23 09:37 | 45.61211 | 18.21838 | 35187 ft | 491 kts | 157° |
| 2026-04-23 09:37 | 45.54722 | 18.24864 | 35181 ft | 490 kts | 156° |
| 2026-04-23 09:38 | 45.48252 | 18.27927 | 35175 ft | 490 kts | 156° |
| 2026-04-23 09:38 | 45.41788 | 18.30990 | 35176 ft | 489 kts | 156° |
| 2026-04-23 09:39 | 45.35330 | 18.34037 | 35173 ft | 489 kts | 156° |
| 2026-04-23 09:39 | 45.28877 | 18.37077 | 35177 ft | 488 kts | 156° |
| 2026-04-23 09:40 | 45.22429 | 18.40104 | 35174 ft | 488 kts | 156° |
| 2026-04-23 09:40 | 45.16031 | 18.43102 | 35180 ft | 487 kts | 156° |
| 2026-04-23 09:41 | 45.09602 | 18.46107 | 35185 ft | 486 kts | 156° |
| 2026-04-23 09:41 | 45.03182 | 18.49101 | 35185 ft | 485 kts | 156° |
| 2026-04-23 09:42 | 44.96787 | 18.52075 | 35186 ft | 485 kts | 156° |
| 2026-04-23 09:42 | 44.90381 | 18.55049 | 35187 ft | 484 kts | 156° |
| 2026-04-23 09:43 | 44.83987 | 18.58010 | 35196 ft | 483 kts | 156° |
| 2026-04-23 09:43 | 44.77599 | 18.60962 | 35202 ft | 483 kts | 156° |
| 2026-04-23 09:44 | 44.71208 | 18.63905 | 35210 ft | 483 kts | 156° |
| 2026-04-23 09:44 | 44.64819 | 18.66846 | 35210 ft | 483 kts | 156° |
| 2026-04-23 09:45 | 44.58435 | 18.69772 | 35209 ft | 482 kts | 156° |
| 2026-04-23 09:45 | 44.52057 | 18.72690 | 35213 ft | 482 kts | 156° |
| 2026-04-23 09:46 | 44.45683 | 18.75600 | 35215 ft | 482 kts | 156° |
| 2026-04-23 09:46 | 44.39306 | 18.78504 | 35208 ft | 482 kts | 156° |
| 2026-04-23 09:47 | 44.32928 | 18.81409 | 35191 ft | 482 kts | 156° |
| 2026-04-23 09:47 | 44.26546 | 18.84302 | 35181 ft | 482 kts | 156° |
| 2026-04-23 09:48 | 44.20168 | 18.87185 | 35182 ft | 482 kts | 156° |
| 2026-04-23 09:48 | 44.13837 | 18.90043 | 35179 ft | 482 kts | 156° |
| 2026-04-23 09:49 | 44.07466 | 18.92914 | 35184 ft | 481 kts | 156° |
| 2026-04-23 09:49 | 44.01096 | 18.95776 | 35176 ft | 481 kts | 156° |
| 2026-04-23 09:50 | 43.94738 | 18.98628 | 35170 ft | 481 kts | 156° |
| 2026-04-23 09:50 | 43.88469 | 19.01430 | 35178 ft | 482 kts | 156° |
| 2026-04-23 09:51 | 43.82083 | 19.04283 | 35180 ft | 482 kts | 157° |
| 2026-04-23 09:51 | 43.75689 | 19.07132 | 35163 ft | 483 kts | 157° |